Time;durP1;ratioP1;P1;durP2;ratioP2;P2;SDS_P1;SDS_P2;PMS_P1;PMS_P2;Temp;Humidity;BMP_temperature;BMP_pressure;BME280_temperature;BME280_humidity;BME280_pressure;Samples;Min_cycle;Max_cycle;Signal;HPM_P1;HPM_P2
2022/03/16 00:01:07;;;;;;;;;;;;;;;6.05;68.36;101651.13;5130493;27;1314;-96
2022/03/16 00:03:33;;;;;;;;;;;;;;;6.04;68.60;101646.78;5129266;27;1799;-96
2022/03/16 00:06:00;;;;;;;;;;;;;;;6.04;68.61;101654.81;5139696;27;1409;-96
2022/03/16 00:08:28;;;;;;;;;;;;;;;6.03;68.50;101658.50;5136917;27;1495;-96
2022/03/16 00:10:55;;;;;;;;;;;;;;;6.02;68.40;101653.31;5130071;27;1338;-96
2022/03/16 00:13:22;;;;;;;;;;;;;;;6.01;68.30;101644.44;5130671;27;1297;-96
2022/03/16 00:15:49;;;;;;;;;;;;;;;6.00;68.71;101653.47;5130374;27;1886;-96
2022/03/16 00:18:15;;;;;;;;;;;;;;;6.00;68.29;101641.91;5129668;27;1410;-96
2022/03/16 00:20:42;;;;;;;;;;;;;;;5.99;68.61;101649.13;5130682;27;1567;-96
2022/03/16 00:23:09;;;;;;;;;;;;;;;5.98;68.43;101657.31;5129980;27;1427;-96
2022/03/16 00:25:35;;;;;;;;;;;;;;;5.98;68.54;101651.97;5130605;27;1621;-96
2022/03/16 00:28:02;;;;;;;;;;;;;;;5.97;68.40;101651.13;5130918;27;1873;-96
2022/03/16 00:30:29;;;;;;;;;;;;;;;5.97;68.38;101655.63;5132154;27;1408;-96
2022/03/16 00:32:55;;;;;;;;;;;;;;;5.97;68.65;101650.28;5134877;27;1964;-96
2022/03/16 00:35:22;;;;;;;;;;;;;;;5.95;68.45;101650.44;5129450;27;1906;-96
2022/03/16 00:37:49;;;;;;;;;;;;;;;5.95;68.61;101652.28;5129658;27;1372;-96
2022/03/16 00:40:15;;;;;;;;;;;;;;;5.94;68.31;101655.94;5129593;27;1376;-96
2022/03/16 00:42:43;;;;;;;;;;;;;;;5.92;68.59;101661.44;5128978;27;1598;-96
2022/03/16 00:45:09;;;;;;;;;;;;;;;5.92;68.49;101664.13;5147218;27;1206;-96
2022/03/16 00:47:36;;;;;;;;;;;;;;;5.90;68.38;101671.44;5133829;27;1637;-96
2022/03/16 00:52:53;;;;;;;;;;;;;;;5.87;68.57;101664.59;5128848;27;1357;-96
2022/03/16 00:55:20;;;;;;;;;;;;;;;5.88;68.63;101670.75;5128343;27;1909;-96
2022/03/16 00:57:47;;;;;;;;;;;;;;;5.87;68.41;101663.75;5129255;28;1652;-96
2022/03/16 01:00:13;;;;;;;;;;;;;;;5.86;68.59;101667.44;5135361;27;1646;-96
2022/03/16 01:02:40;;;;;;;;;;;;;;;5.85;68.48;101668.41;5149639;27;1260;-96
2022/03/16 01:05:07;;;;;;;;;;;;;;;5.85;68.66;101673.75;5133918;27;1790;-96
2022/03/16 01:07:34;;;;;;;;;;;;;;;5.83;68.57;101679.28;5150844;27;1391;-96
2022/03/16 01:10:03;;;;;;;;;;;;;;;5.83;68.49;101684.63;5151081;27;1239;-96
2022/03/16 01:12:29;;;;;;;;;;;;;;;5.82;68.45;101690.97;5145445;27;1628;-96
2022/03/16 01:14:56;;;;;;;;;;;;;;;5.81;68.51;101683.94;5142200;27;1922;-96
2022/03/16 01:17:24;;;;;;;;;;;;;;;5.83;68.32;101686.47;5150803;27;1247;-96
2022/03/16 01:19:51;;;;;;;;;;;;;;;5.80;68.45;101687.63;5151241;27;1308;-96
2022/03/16 01:22:20;;;;;;;;;;;;;;;5.79;68.49;101683.25;5148138;27;1242;-96
2022/03/16 01:24:47;;;;;;;;;;;;;;;5.79;68.47;101679.75;5129896;28;2133;-96
2022/03/16 01:27:14;;;;;;;;;;;;;;;5.79;68.26;101682.44;5129263;28;1722;-96
2022/03/16 01:29:41;;;;;;;;;;;;;;;5.78;68.28;101675.41;5130446;28;1227;-96
2022/03/16 01:32:07;;;;;;;;;;;;;;;5.76;68.36;101675.56;5128975;28;1476;-96
2022/03/16 01:34:35;;;;;;;;;;;;;;;5.76;68.59;101677.41;5130350;28;1953;-96
2022/03/16 01:37:02;;;;;;;;;;;;;;;5.75;68.57;101673.91;5141446;27;2002;-96
2022/03/16 01:39:29;;;;;;;;;;;;;;;5.74;68.26;101676.75;5154029;27;1301;-96
2022/03/16 01:41:55;;;;;;;;;;;;;;;5.73;68.53;101675.88;5152513;27;1533;-96
2022/03/16 01:44:22;;;;;;;;;;;;;;;5.73;68.49;101689.25;5153253;27;1442;-96
2022/03/16 01:46:49;;;;;;;;;;;;;;;5.71;68.69;101685.94;5153563;27;1373;-96
2022/03/16 01:49:16;;;;;;;;;;;;;;;5.71;68.49;101685.94;5153970;27;1222;-96
2022/03/16 01:51:43;;;;;;;;;;;;;;;5.72;68.72;101692.94;5150630;27;1353;-96
2022/03/16 01:54:12;;;;;;;;;;;;;;;5.69;68.61;101680.72;5131687;28;1211;-96
2022/03/16 01:56:39;;;;;;;;;;;;;;;5.69;68.36;101686.06;5130586;28;1890;-96
2022/03/16 01:59:05;;;;;;;;;;;;;;;5.69;68.30;101688.75;5139873;27;1896;-96
2022/03/16 02:01:32;;;;;;;;;;;;;;;5.67;68.40;101688.06;5135145;27;1297;-96
2022/03/16 02:03:59;;;;;;;;;;;;;;;5.68;68.49;101696.94;5134274;27;1869;-96
2022/03/16 02:06:26;;;;;;;;;;;;;;;5.67;68.48;101692.56;5134102;27;1258;-96
2022/03/16 02:08:53;;;;;;;;;;;;;;;5.66;68.66;101694.41;5137250;27;1225;-96
2022/03/16 02:11:21;;;;;;;;;;;;;;;5.65;68.35;101694.59;5154064;27;1180;-96
2022/03/16 02:13:47;;;;;;;;;;;;;;;5.64;68.32;101693.72;5153427;27;1384;-96
2022/03/16 02:16:14;;;;;;;;;;;;;;;5.63;68.39;101692.06;5151466;27;1985;-96
2022/03/16 02:18:41;;;;;;;;;;;;;;;5.64;68.55;101696.41;5154844;27;1382;-96
2022/03/16 02:21:08;;;;;;;;;;;;;;;5.64;68.11;101704.41;5150333;27;1362;-96
2022/03/16 02:23:35;;;;;;;;;;;;;;;5.62;68.45;101703.75;5133446;27;1605;-96
2022/03/16 02:26:02;;;;;;;;;;;;;;;5.59;68.52;101698.72;5150927;27;1223;-96
2022/03/16 02:28:29;;;;;;;;;;;;;;;5.59;68.46;101706.75;5151047;27;1510;-96
2022/03/16 02:30:56;;;;;;;;;;;;;;;5.59;68.49;101712.09;5148327;27;2168;-96
2022/03/16 02:33:22;;;;;;;;;;;;;;;5.59;68.49;101719.25;5132651;27;1430;-96
2022/03/16 02:35:50;;;;;;;;;;;;;;;5.57;68.51;101714.06;5132585;27;1886;-96
2022/03/16 02:38:17;;;;;;;;;;;;;;;5.56;68.41;101716.91;5132997;27;1347;-96
2022/03/16 02:40:44;;;;;;;;;;;;;;;5.56;68.56;101707.06;5132583;27;1290;-96
2022/03/16 02:43:10;;;;;;;;;;;;;;;5.56;68.26;101711.53;5132285;27;1278;-96
2022/03/16 02:45:37;;;;;;;;;;;;;;;5.55;68.55;101718.72;5132999;27;1590;-96
2022/03/16 02:48:05;;;;;;;;;;;;;;;5.54;68.37;101719.75;5153706;27;1228;-96
2022/03/16 02:50:31;;;;;;;;;;;;;;;5.54;68.39;101718.91;5140069;27;1607;-96
2022/03/16 02:52:59;;;;;;;;;;;;;;;5.53;68.59;101715.41;5133235;27;1344;-96
2022/03/16 02:55:26;;;;;;;;;;;;;;;5.52;68.48;101719.06;5138653;27;1971;-96
2022/03/16 02:57:52;;;;;;;;;;;;;;;5.51;68.48;101719.22;5133322;27;1331;-96
2022/03/16 03:00:20;;;;;;;;;;;;;;;5.52;68.33;101731.56;5150812;27;1853;-96
2022/03/16 03:02:48;;;;;;;;;;;;;;;5.51;68.35;101729.91;5154773;27;1437;-96
2022/03/16 03:05:15;;;;;;;;;;;;;;;5.50;68.48;101731.75;5154862;27;1266;-96
2022/03/16 03:07:43;;;;;;;;;;;;;;;5.50;68.22;101742.44;5155171;27;1153;-96
2022/03/16 03:10:10;;;;;;;;;;;;;;;5.49;68.48;101743.41;5154042;27;2140;-96
2022/03/16 03:12:37;;;;;;;;;;;;;;;5.48;68.46;101747.09;5134165;27;1514;-96
2022/03/16 03:15:04;;;;;;;;;;;;;;;5.48;68.39;101752.44;5134090;27;1909;-96
2022/03/16 03:17:32;;;;;;;;;;;;;;;5.46;68.46;101757.94;5135117;27;1187;-96
2022/03/16 03:19:59;;;;;;;;;;;;;;;5.45;68.30;101761.59;5134503;27;1325;-96
2022/03/16 03:22:27;;;;;;;;;;;;;;;5.44;68.58;101762.59;5146110;27;1425;-96
2022/03/16 03:24:54;;;;;;;;;;;;;;;5.44;68.48;101773.28;5143924;27;1963;-96
2022/03/16 03:27:21;;;;;;;;;;;;;;;5.43;68.31;101768.94;5134214;27;1421;-96
2022/03/16 03:29:48;;;;;;;;;;;;;;;5.42;68.32;101775.28;5134446;27;1381;-96
2022/03/16 03:32:15;;;;;;;;;;;;;;;5.43;68.37;101776.13;5135385;27;1200;-96
2022/03/16 03:34:46;;;;;;;;;;;;;;;5.42;68.42;101777.13;5135251;27;1293;-96
2022/03/16 03:37:14;;;;;;;;;;;;;;;5.42;68.37;101771.78;5144258;27;1914;-96
2022/03/16 03:39:41;;;;;;;;;;;;;;;5.40;68.18;101765.75;5147630;27;1207;-96
2022/03/16 03:42:08;;;;;;;;;;;;;;;5.40;68.32;101774.59;5134456;27;1241;-96
2022/03/16 03:44:37;;;;;;;;;;;;;;;5.39;68.21;101772.91;5133671;27;1427;-96
2022/03/16 03:47:03;;;;;;;;;;;;;;;5.38;68.25;101776.59;5169060;27;1424;-96
2022/03/16 03:49:30;;;;;;;;;;;;;;;5.37;68.35;101771.41;5165894;27;1908;-96
2022/03/16 03:51:58;;;;;;;;;;;;;;;5.38;68.29;101767.72;5135344;27;1372;-96
2022/03/16 03:54:38;;;;;;;;;;;;;;;5.36;68.41;101769.72;5136827;27;1316;-96
2022/03/16 03:57:04;;;;;;;;;;;;;;;5.36;68.14;101769.72;5139655;27;1963;-96
2022/03/16 03:59:32;;;;;;;;;;;;;;;5.35;68.31;101762.69;5136733;27;1241;-96
2022/03/16 04:01:59;;;;;;;;;;;;;;;5.35;68.13;101763.53;5133433;27;1855;-96
2022/03/16 04:04:27;;;;;;;;;;;;;;;5.34;68.09;101766.38;5134080;27;1456;-96
2022/03/16 04:06:54;;;;;;;;;;;;;;;5.33;68.13;101762.03;5152286;27;1386;-96
2022/03/16 04:09:23;;;;;;;;;;;;;;;5.33;68.25;101762.03;5153920;27;1324;-96
2022/03/16 04:11:52;;;;;;;;;;;;;;;5.31;68.16;101762.16;5143142;27;1585;-96
2022/03/16 04:14:19;;;;;;;;;;;;;;;5.32;68.32;101765.66;5145108;27;1511;-96
2022/03/16 04:16:46;;;;;;;;;;;;;;;5.31;68.19;101764.84;5145838;27;1886;-96
2022/03/16 04:19:13;;;;;;;;;;;;;;;5.31;68.21;101772.03;5148894;27;1360;-96
2022/03/16 04:21:40;;;;;;;;;;;;;;;5.31;68.08;101770.19;5133204;27;1378;-96
2022/03/16 04:24:07;;;;;;;;;;;;;;;5.31;68.12;101766.69;5132224;27;1274;-96
2022/03/16 04:26:34;;;;;;;;;;;;;;;5.29;68.29;101774.81;5133347;27;1241;-96
2022/03/16 04:29:01;;;;;;;;;;;;;;;5.29;68.22;101776.66;5151298;27;1589;-96
2022/03/16 04:31:28;;;;;;;;;;;;;;;5.28;68.03;101772.34;5154205;27;2026;-96
2022/03/16 04:33:57;;;;;;;;;;;;;;;5.27;68.20;101776.84;5132545;27;1317;-96
2022/03/16 04:36:24;;;;;;;;;;;;;;;5.26;68.20;101785.81;5133543;27;1902;-96
2022/03/16 04:38:51;;;;;;;;;;;;;;;5.26;68.15;101796.50;5133208;27;1445;-96
2022/03/16 04:41:18;;;;;;;;;;;;;;;5.26;68.07;101782.31;5133114;27;1176;-96
2022/03/16 04:43:47;;;;;;;;;;;;;;;5.26;68.17;101793.84;5151887;27;1193;-96
2022/03/16 04:46:14;;;;;;;;;;;;;;;5.26;68.04;101796.50;5139034;27;1692;-96
2022/03/16 04:48:43;;;;;;;;;;;;;;;5.24;68.11;101793.19;5140514;27;1870;-96
2022/03/16 04:51:10;;;;;;;;;;;;;;;5.23;68.14;101799.50;5133030;27;1226;-96
2022/03/16 04:53:37;;;;;;;;;;;;;;;5.22;68.02;101806.69;5147303;27;1292;-96
2022/03/16 04:56:05;;;;;;;;;;;;;;;5.22;67.98;101803.16;5155345;27;1890;-96
2022/03/16 04:58:33;;;;;;;;;;;;;;;5.22;68.13;101804.00;5154331;27;1270;-96
2022/03/16 05:01:01;;;;;;;;;;;;;;;5.21;68.19;101812.19;5154525;27;1270;-96
2022/03/16 05:03:28;;;;;;;;;;;;;;;5.20;68.22;101814.00;5136011;27;1872;-96
2022/03/16 05:05:55;;;;;;;;;;;;;;;5.20;68.09;101813.16;5134116;27;1233;-96
2022/03/16 05:08:22;;;;;;;;;;;;;;;5.19;68.21;101806.97;5133653;27;1459;-96
2022/03/16 05:10:49;;;;;;;;;;;;;;;5.19;68.02;101816.84;5148266;27;1162;-96
2022/03/16 05:13:17;;;;;;;;;;;;;;;5.18;68.12;101823.19;5150264;27;1849;-96
2022/03/16 05:15:44;;;;;;;;;;;;;;;5.17;68.30;101824.97;5133502;28;1905;-96
2022/03/16 05:18:11;;;;;;;;;;;;;;;5.17;68.04;101821.47;5133409;28;1312;-96
2022/03/16 05:20:37;;;;;;;;;;;;;;;5.17;68.09;101827.66;5132273;28;1261;-96
2022/03/16 05:23:06;;;;;;;;;;;;;;;5.15;68.12;101816.31;5141345;27;1825;-96
2022/03/16 05:25:35;;;;;;;;;;;;;;;5.15;68.21;101828.81;5153479;27;1353;-96
2022/03/16 05:28:02;;;;;;;;;;;;;;;5.15;68.25;101835.00;5153408;27;1210;-96
2022/03/16 05:30:29;;;;;;;;;;;;;;;5.15;68.14;101832.34;5154532;27;1185;-96
2022/03/16 05:32:56;;;;;;;;;;;;;;;5.14;67.96;101830.63;5137288;28;1236;-96
2022/03/16 05:35:23;;;;;;;;;;;;;;;5.15;68.01;101836.84;5133790;28;1156;-96
2022/03/16 05:37:50;;;;;;;;;;;;;;;5.14;68.16;101848.50;5137009;27;1987;-96
2022/03/16 05:40:18;;;;;;;;;;;;;;;5.14;68.01;101856.50;5137165;27;1322;-96
2022/03/16 05:42:47;;;;;;;;;;;;;;;5.12;68.03;101862.03;5137642;27;1367;-96
2022/03/16 05:45:14;;;;;;;;;;;;;;;5.12;67.96;101864.69;5137635;27;1358;-96
2022/03/16 05:47:41;;;;;;;;;;;;;;;5.13;68.02;101870.88;5139772;27;1581;-96
2022/03/16 05:50:08;;;;;;;;;;;;;;;5.11;68.09;101856.81;5176400;27;844;-96
2022/03/16 05:52:41;;;;;;;;;;;;;;;5.10;67.96;101868.50;5155744;27;2161;-96
2022/03/16 05:55:08;;;;;;;;;;;;;;;5.10;67.88;101863.16;5157688;27;1589;-96
2022/03/16 05:57:39;;;;;;;;;;;;;;;5.09;68.08;101872.13;5168813;27;1882;-96
2022/03/16 06:00:07;;;;;;;;;;;;;;;5.09;67.96;101874.81;5137666;27;1259;-96
2022/03/16 06:02:34;;;;;;;;;;;;;;;5.08;67.93;101871.31;5137947;27;1190;-96
2022/03/16 06:05:02;;;;;;;;;;;;;;;5.07;68.07;101869.63;5154735;27;1086;-96
2022/03/16 06:07:30;;;;;;;;;;;;;;;5.05;68.11;101868.94;5158128;27;1432;-96
2022/03/16 06:09:57;;;;;;;;;;;;;;;5.07;67.81;101874.97;5140663;27;1482;-96
2022/03/16 06:12:24;;;;;;;;;;;;;;;5.05;67.85;101868.94;5138328;27;1214;-96
2022/03/16 06:14:51;;;;;;;;;;;;;;;5.06;68.04;101870.63;5137410;27;1352;-96
2022/03/16 06:17:17;;;;;;;;;;;;;;;5.05;67.88;101868.09;5137137;27;1886;-96
2022/03/16 06:19:45;;;;;;;;;;;;;;;5.04;67.99;101864.59;5138856;27;1943;-96
2022/03/16 06:22:13;;;;;;;;;;;;;;;5.05;67.95;101876.13;5158060;27;1400;-96
2022/03/16 06:24:40;;;;;;;;;;;;;;;5.04;68.00;101885.13;5136672;27;1236;-96
2022/03/16 06:27:07;;;;;;;;;;;;;;;5.03;67.98;101878.97;5136162;27;1506;-96
2022/03/16 06:29:34;;;;;;;;;;;;;;;5.03;67.98;101881.63;5136672;27;1224;-96
2022/03/16 06:32:01;;;;;;;;;;;;;;;5.01;67.93;101884.44;5152070;27;2288;-96
2022/03/16 06:34:29;;;;;;;;;;;;;;;5.00;68.13;101882.75;5136444;27;1311;-96
2022/03/16 06:36:56;;;;;;;;;;;;;;;5.01;67.93;101896.94;5136654;27;1959;-96
2022/03/16 06:39:24;;;;;;;;;;;;;;;5.00;67.97;101897.94;5154869;27;878;-96
2022/03/16 06:41:50;;;;;;;;;;;;;;;4.99;67.92;101898.91;5136549;27;1042;-96
2022/03/16 06:44:19;;;;;;;;;;;;;;;4.99;68.07;101898.91;5154752;27;1215;-96
2022/03/16 06:46:47;;;;;;;;;;;;;;;4.99;67.94;101912.25;5145149;27;1857;-96
2022/03/16 06:49:16;;;;;;;;;;;;;;;4.97;67.98;101914.25;5136465;27;1325;-96
2022/03/16 06:51:44;;;;;;;;;;;;;;;4.96;68.00;101917.91;5136666;27;1293;-96
2022/03/16 06:54:10;;;;;;;;;;;;;;;4.97;67.89;101925.78;5145743;27;1425;-96
2022/03/16 06:56:38;;;;;;;;;;;;;;;4.95;67.97;101933.09;5136452;27;1905;-96
2022/03/16 06:59:05;;;;;;;;;;;;;;;4.95;67.93;101938.44;5136152;27;1637;-96
2022/03/16 07:01:32;;;;;;;;;;;;;;;4.95;67.94;101938.44;5142142;27;1555;-96
2022/03/16 07:03:59;;;;;;;;;;;;;;;4.95;68.00;101940.28;5156634;27;1130;-96
2022/03/16 07:06:27;;;;;;;;;;;;;;;4.93;67.96;101945.75;5156916;27;1373;-96
2022/03/16 07:08:54;;;;;;;;;;;;;;;4.93;68.00;101947.56;5156315;27;1303;-96
2022/03/16 07:11:21;;;;;;;;;;;;;;;4.92;67.98;101952.09;5156280;27;1162;-96
2022/03/16 07:16:30;;;;;;;;;;;;;;;4.93;67.94;101953.75;5141987;27;1905;-96
2022/03/16 07:19:00;;;;;;;;;;;;;;;4.92;67.84;101946.75;5149300;27;1248;-96
2022/03/16 07:21:27;;;;;;;;;;;;;;;4.92;67.92;101948.56;5134225;27;1660;-96
2022/03/16 07:23:54;;;;;;;;;;;;;;;4.90;67.93;101945.22;5118440;28;1843;-96
2022/03/16 07:26:21;;;;;;;;;;;;;;;4.90;67.90;101947.88;5132024;28;1273;-96
2022/03/16 07:28:47;;;;;;;;;;;;;;;4.90;68.07;101951.38;5140635;27;1638;-96
2022/03/16 07:31:14;;;;;;;;;;;;;;;4.89;67.88;101956.88;5121609;28;1253;-96
2022/03/16 07:33:41;;;;;;;;;;;;;;;4.90;68.13;101963.91;5121012;28;1319;-96
2022/03/16 07:36:07;;;;;;;;;;;;;;;4.89;68.13;101965.72;5121297;28;1976;-96
2022/03/16 07:38:36;;;;;;;;;;;;;;;4.88;68.12;101969.41;5133198;27;1462;-96
2022/03/16 07:41:04;;;;;;;;;;;;;;;4.87;68.12;101965.03;5135170;27;2397;-96
2022/03/16 07:43:32;;;;;;;;;;;;;;;4.87;67.95;101970.38;5147751;27;1176;-96
2022/03/16 07:45:59;;;;;;;;;;;;;;;4.87;68.13;101972.19;5105801;28;2206;-96
2022/03/16 07:48:26;;;;;;;;;;;;;;;4.86;67.83;101968.69;5137609;27;1341;-96
2022/03/16 07:50:54;;;;;;;;;;;;;;;4.86;68.09;101970.53;5132039;27;1810;-96
2022/03/16 07:53:21;;;;;;;;;;;;;;;4.87;68.03;101982.88;5122667;27;1792;-96
2022/03/16 07:55:48;;;;;;;;;;;;;;;4.86;68.10;101984.72;5124550;27;2174;-96
2022/03/16 07:58:14;;;;;;;;;;;;;;;4.86;67.87;101992.72;5138414;27;1901;-96
2022/03/16 08:00:41;;;;;;;;;;;;;;;4.84;67.88;101997.34;5141324;27;1314;-96
2022/03/16 08:03:09;;;;;;;;;;;;;;;4.84;67.93;101999.19;5142107;27;1237;-96
2022/03/16 08:05:36;;;;;;;;;;;;;;;4.84;68.06;101992.03;5141053;27;1252;-96
2022/03/16 08:08:03;;;;;;;;;;;;;;;4.85;67.92;101990.19;5126978;27;1177;-96
2022/03/16 08:10:30;;;;;;;;;;;;;;;4.82;67.76;101991.31;5136608;27;1803;-96
2022/03/16 08:12:56;;;;;;;;;;;;;;;4.83;67.89;101990.34;5130873;27;2148;-96
2022/03/16 08:15:23;;;;;;;;;;;;;;;4.81;67.95;101992.31;5139068;27;1600;-96
2022/03/16 08:17:50;;;;;;;;;;;;;;;4.81;68.08;101994.97;5140844;27;1934;-96
2022/03/16 08:20:17;;;;;;;;;;;;;;;4.82;67.87;101996.66;5140831;27;1447;-96
2022/03/16 08:22:44;;;;;;;;;;;;;;;4.81;67.96;101992.31;5136074;27;1819;-96
2022/03/16 08:25:11;;;;;;;;;;;;;;;4.80;67.91;101985.31;5120533;28;2244;-96
2022/03/16 08:27:38;;;;;;;;;;;;;;;4.80;68.01;101990.66;5121396;28;1878;-96
2022/03/16 08:30:05;;;;;;;;;;;;;;;4.80;67.89;101985.31;5119916;28;2299;-96
2022/03/16 08:32:32;;;;;;;;;;;;;;;4.79;68.05;101986.28;5120752;28;1431;-96
2022/03/16 08:34:59;;;;;;;;;;;;;;;4.80;67.79;101995.16;5120484;28;1478;-96
2022/03/16 08:37:26;;;;;;;;;;;;;;;4.80;67.82;101998.66;5120034;27;1905;-96
2022/03/16 08:39:52;;;;;;;;;;;;;;;4.79;67.93;101999.63;5125459;27;1562;-96
2022/03/16 08:42:19;;;;;;;;;;;;;;;4.78;68.01;101998.78;5121188;27;1639;-96
2022/03/16 08:44:46;;;;;;;;;;;;;;;4.77;67.90;101994.44;5125681;27;1412;-96
2022/03/16 08:47:20;;;;;;;;;;;;;;;4.78;67.94;101992.59;5131860;27;1597;-96
2022/03/16 08:49:55;;;;;;;;;;;;;;;4.77;67.87;101998.94;5131068;28;1352;-96
2022/03/16 08:52:26;;;;;;;;;;;;;;;4.78;67.83;102011.28;5138134;27;1819;-96
2022/03/16 08:55:02;;;;;;;;;;;;;;;4.77;67.96;102009.63;5137030;27;1387;-96
2022/03/16 08:57:37;;;;;;;;;;;;;;;4.78;67.84;102016.63;5143360;27;1894;-96
2022/03/16 09:00:05;;;;;;;;;;;;;;;4.77;67.76;102013.13;5153046;27;1168;-96
2022/03/16 09:02:36;;;;;;;;;;;;;;;4.77;67.87;102015.81;5144380;27;1601;-96
2022/03/16 09:05:03;;;;;;;;;;;;;;;4.76;67.83;102003.44;5130756;28;1371;-96
2022/03/16 09:07:30;;;;;;;;;;;;;;;4.75;67.74;102015.09;5130386;28;1183;-96
2022/03/16 09:09:59;;;;;;;;;;;;;;;4.75;67.81;102016.94;5140939;27;2093;-96
2022/03/16 09:12:30;;;;;;;;;;;;;;;4.76;67.68;102019.47;5129439;28;1257;-96
2022/03/16 09:14:58;;;;;;;;;;;;;;;4.75;67.68;102020.44;5133349;28;1326;-96
2022/03/16 09:17:28;;;;;;;;;;;;;;;4.74;67.92;102024.09;5132836;28;1942;-96
2022/03/16 09:19:56;;;;;;;;;;;;;;;4.75;67.91;102035.63;5150275;27;1530;-96
2022/03/16 09:22:28;;;;;;;;;;;;;;;4.76;67.92;102029.28;5147256;27;1175;-96
2022/03/16 09:24:57;;;;;;;;;;;;;;;4.74;67.82;102042.78;5133536;28;2229;-96
2022/03/16 09:27:29;;;;;;;;;;;;;;;4.74;67.76;102042.78;5148254;27;1629;-96
2022/03/16 09:29:56;;;;;;;;;;;;;;;4.74;67.86;102042.78;5151611;27;2153;-96
2022/03/16 09:32:27;;;;;;;;;;;;;;;4.74;67.79;102049.97;5146185;28;1277;-96
2022/03/16 09:34:55;;;;;;;;;;;;;;;4.74;67.92;102052.63;5135123;27;1385;-96
2022/03/16 09:37:22;;;;;;;;;;;;;;;4.74;67.85;102055.28;5134075;28;1988;-96
2022/03/16 09:39:49;;;;;;;;;;;;;;;4.73;67.77;102065.09;5132872;28;1796;-96
2022/03/16 09:42:19;;;;;;;;;;;;;;;4.74;67.79;102068.63;5141906;27;1666;-96
2022/03/16 09:44:49;;;;;;;;;;;;;;;4.72;67.90;102074.09;5133414;28;1805;-96
2022/03/16 09:47:18;;;;;;;;;;;;;;;4.73;67.80;102066.94;5132003;28;1749;-96
2022/03/16 09:49:51;;;;;;;;;;;;;;;4.73;67.82;102062.44;5146039;27;1673;-96
2022/03/16 09:52:20;;;;;;;;;;;;;;;4.71;67.94;102064.44;5133293;27;1844;-96
2022/03/16 09:54:48;;;;;;;;;;;;;;;4.71;67.81;102059.09;5140466;28;1222;-96
2022/03/16 09:57:15;;;;;;;;;;;;;;;4.71;67.87;102056.41;5140476;28;1967;-96
2022/03/16 09:59:54;;;;;;;;;;;;;;;4.71;67.73;102053.75;5108451;27;1204;-96
2022/03/16 10:14:47;;;;;;;;;;;;;;;4.71;67.72;102076.94;5169252;27;1693;-96
2022/03/16 10:22:52;;;;;;;;;;;;;;;4.70;67.75;102086.75;5138418;27;1451;-96
2022/03/16 10:28:08;;;;;;;;;;;;;;;4.69;67.68;102092.25;5154931;27;1306;-96
2022/03/16 10:30:38;;;;;;;;;;;;;;;4.70;67.81;102088.59;5139588;27;1850;-96
2022/03/16 10:36:26;;;;;;;;;;;;;;;4.70;67.66;102105.44;5177261;27;1021;-96
2022/03/16 10:38:58;;;;;;;;;;;;;;;4.71;67.71;102106.31;5141686;27;1960;-96
2022/03/16 10:46:58;;;;;;;;;;;;;;;4.69;67.70;102100.25;5136631;27;2007;-96
2022/03/16 10:49:38;;;;;;;;;;;;;;;4.68;67.64;102103.91;5134511;27;1528;-96
2022/03/16 10:52:11;;;;;;;;;;;;;;;4.68;67.76;102106.59;5136372;27;1319;-96
2022/03/16 10:54:43;;;;;;;;;;;;;;;4.68;67.73;102101.25;5142756;27;1802;-96
2022/03/16 10:57:19;;;;;;;;;;;;;;;4.67;67.75;102095.03;5141778;27;1976;-96
2022/03/16 10:59:52;;;;;;;;;;;;;;;4.68;67.67;102104.75;5157793;27;1320;-96
2022/03/16 11:02:21;;;;;;;;;;;;;;;4.67;67.51;102112.88;5160040;27;1374;-96
2022/03/16 11:04:50;;;;;;;;;;;;;;;4.68;67.84;102110.09;5140822;27;1786;-96
2022/03/16 11:07:26;;;;;;;;;;;;;;;4.68;67.69;102122.59;5133707;27;2614;-96
2022/03/16 11:09:58;;;;;;;;;;;;;;;4.67;67.63;102124.41;5140889;27;1278;-96
2022/03/16 11:15:12;;;;;;;;;;;;;;;4.68;67.57;102125.28;5138543;27;1676;-96
2022/03/16 11:17:43;;;;;;;;;;;;;;;4.67;67.66;102134.25;5141825;27;1890;-96
2022/03/16 11:20:13;;;;;;;;;;;;;;;4.66;67.67;102132.56;5144496;27;1383;-96
2022/03/16 11:24:15;;;;;;;;;;;;;;;4.68;67.54;102136.78;5146468;27;1413;-96
2022/03/16 11:25:33;;;;;;;;;;;;;;;4.67;67.61;102139.56;5140963;27;1556;-96
2022/03/16 11:28:09;;;;;;;;;;;;;;;4.68;67.54;102141.28;5172978;27;1216;-96
2022/03/16 11:30:45;;;;;;;;;;;;;;;4.67;67.55;102134.25;5139985;27;1456;-96
2022/03/16 11:33:16;;;;;;;;;;;;;;;4.67;67.65;102142.25;5140281;27;1609;-96
2022/03/16 11:35:50;;;;;;;;;;;;;;;4.67;67.53;102139.56;5155231;27;1420;-96
2022/03/16 11:38:18;;;;;;;;;;;;;;;4.66;67.53;102140.56;5147472;27;2204;-96
2022/03/16 11:40:46;;;;;;;;;;;;;;;4.66;67.59;102136.06;5153939;27;1228;-96
2022/03/16 11:43:24;;;;;;;;;;;;;;;4.66;67.53;102135.25;5143110;27;1213;-96
2022/03/16 11:45:57;;;;;;;;;;;;;;;4.66;67.67;102140.56;5135641;27;1538;-96
2022/03/16 11:48:32;;;;;;;;;;;;;;;4.66;67.61;102152.09;5138813;27;1421;-96
2022/03/16 11:51:01;;;;;;;;;;;;;;;4.66;67.50;102151.25;5141274;27;1193;-96
2022/03/16 11:53:29;;;;;;;;;;;;;;;4.65;67.56;102153.09;5141097;27;1794;-96
2022/03/16 11:55:59;;;;;;;;;;;;;;;4.66;67.56;102148.59;5152640;27;2192;-96
2022/03/16 11:58:28;;;;;;;;;;;;;;;4.65;67.37;102147.75;5162174;27;1891;-96
2022/03/16 12:00:57;;;;;;;;;;;;;;;4.65;67.58;102150.41;5153944;27;1285;-96
2022/03/16 12:03:31;;;;;;;;;;;;;;;4.66;67.78;102157.44;5147043;27;1353;-96
2022/03/16 12:06:00;;;;;;;;;;;;;;;4.66;67.67;102151.25;5145103;27;1549;-96
2022/03/16 12:08:31;;;;;;;;;;;;;;;4.65;67.52;102149.56;5128038;27;1304;-96
2022/03/16 12:13:44;;;;;;;;;;;;;;;4.65;67.59;102152.25;5151836;27;1629;-96
2022/03/16 12:21:52;;;;;;;;;;;;;;;4.65;67.57;102155.75;5136064;28;1182;-96
2022/03/16 12:30:04;;;;;;;;;;;;;;;4.64;67.64;102150.53;5160383;27;1346;-96
2022/03/16 12:33:04;;;;;;;;;;;;;;;4.64;67.64;102156.72;5159811;27;1224;-96
2022/03/16 12:46:42;;;;;;;;;;;;;;;4.64;67.54;102154.03;5137399;28;1162;-96
2022/03/16 12:52:08;;;;;;;;;;;;;;;4.64;67.47;102142.53;5145169;27;2365;-96
2022/03/16 12:57:22;;;;;;;;;;;;;;;4.64;67.55;102154.03;5134120;28;1474;-96
2022/03/16 13:03:01;;;;;;;;;;;;;;;4.63;67.68;102152.38;5135750;28;1394;-96
2022/03/16 13:08:12;;;;;;;;;;;;;;;4.62;67.69;102142.69;5154437;27;1620;-96
2022/03/16 13:13:27;;;;;;;;;;;;;;;4.63;67.49;102154.22;5122359;28;1313;-96
2022/03/16 13:16:02;;;;;;;;;;;;;;;4.63;67.68;102143.53;5135354;28;1574;-96
2022/03/16 13:18:37;;;;;;;;;;;;;;;4.64;67.62;102150.53;5136522;28;1902;-96
2022/03/16 13:21:09;;;;;;;;;;;;;;;4.63;67.38;102146.19;5135945;28;1900;-96
2022/03/16 13:23:36;;;;;;;;;;;;;;;4.63;67.59;102148.88;5136653;28;1304;-96
2022/03/16 13:26:10;;;;;;;;;;;;;;;4.62;67.54;102152.50;5145627;28;1434;-96
2022/03/16 13:28:48;;;;;;;;;;;;;;;4.62;67.41;102148.03;5134456;28;1046;-96
2022/03/16 13:31:14;;;;;;;;;;;;;;;4.63;67.55;102146.19;5126692;28;2026;-96
2022/03/16 13:33:41;;;;;;;;;;;;;;;4.63;67.38;102148.88;5129740;28;2935;-96
2022/03/16 13:36:08;;;;;;;;;;;;;;;4.62;67.38;102153.38;5134209;28;1906;-96
2022/03/16 13:38:37;;;;;;;;;;;;;;;4.61;67.62;102151.66;5132561;28;3186;-96
2022/03/16 13:41:04;;;;;;;;;;;;;;;4.63;67.44;102156.88;5117856;28;1773;-96
2022/03/16 13:43:31;;;;;;;;;;;;;;;4.63;67.47;102155.03;5125348;28;1631;-96
2022/03/16 13:46:01;;;;;;;;;;;;;;;4.63;67.36;102156.88;5133172;28;1879;-96
2022/03/16 13:48:29;;;;;;;;;;;;;;;4.62;67.48;102158.69;5120767;28;2247;-96
2022/03/16 13:50:57;;;;;;;;;;;;;;;4.63;67.37;102170.22;5119955;28;1192;-96
2022/03/16 13:53:24;;;;;;;;;;;;;;;4.63;67.57;102175.56;5118004;28;1582;-96
2022/03/16 13:55:53;;;;;;;;;;;;;;;4.63;67.45;102175.56;5122465;28;2473;-96
2022/03/16 13:58:20;;;;;;;;;;;;;;;4.63;67.52;102181.72;5117920;28;1975;-96
2022/03/16 14:00:48;;;;;;;;;;;;;;;4.63;67.49;102184.41;5123432;28;1449;-96
2022/03/16 14:03:15;;;;;;;;;;;;;;;4.63;67.55;102179.06;5129062;27;1642;-96
2022/03/16 14:05:43;;;;;;;;;;;;;;;4.63;67.49;102181.72;5131315;27;1206;-96
2022/03/16 14:08:10;;;;;;;;;;;;;;;4.63;67.46;102179.06;5134255;27;1981;-96
2022/03/16 14:10:37;;;;;;;;;;;;;;;4.63;67.51;102179.06;5129932;27;1905;-96
2022/03/16 14:13:04;;;;;;;;;;;;;;;4.62;67.59;102177.38;5132890;27;1923;-96
2022/03/16 14:15:31;;;;;;;;;;;;;;;4.62;67.48;102180.06;5134027;27;1289;-96
2022/03/16 14:18:01;;;;;;;;;;;;;;;4.62;67.55;102185.41;5137489;27;2238;-96
2022/03/16 14:20:28;;;;;;;;;;;;;;;4.62;67.35;102190.72;5138480;27;2363;-96